KHSP

Ingalls Field Airport

Hot Springs, Virginia, USA
METAR KHSP 201235Z AUTO 28026G36KT 10SM OVC009 00/M03 A3002 RMK AO2 T00011032
Observed Flight Rules
Jan-20 @ 12:35 UTC (33 minutes ago) Instrument Flight Rules
Wind Visibility Clouds
280° at 26 knots
 Gusting to 36 knots
10 miles
  • Overcast at 900' AGL
Temperatures Readings
Current 0°C / 32°F
Dewpoint -3°C / 27°F
Humidity 80%
Altimeter 30.02" Hg
Pressure 1017 hPa
Elevation 1156
METAR KHSP 201235Z AUTO 28026G36KT 10SM OVC009 00/M03 A3002 RMK AO2 T00011032
Observed Flight Rules
Jan-20 @ 12:35 UTC
(33 minutes ago)
IFR
Wind Visibility
280° at 26 knots
 Gusting to 36 knots
10 miles
Clouds
  • Overcast at 900' AGL
Temperature Dewpoint
0°C / 32°F -3°C / 27°F
Humidity Altimeter Pressure
80% 30.02" Hg 1017 hPa